createdAt,value
2018-07-27T00:01:31.447Z,21.30
2018-07-27T00:04:00.515Z,21.10
2018-07-27T00:06:29.375Z,21.20
2018-07-27T00:08:58.850Z,21.10
2018-07-27T00:11:27.652Z,21.10
2018-07-27T00:13:56.567Z,21.00
2018-07-27T00:16:25.468Z,20.90
2018-07-27T00:18:54.594Z,20.90
2018-07-27T00:21:23.396Z,20.80
2018-07-27T00:23:52.211Z,20.70
2018-07-27T00:26:21.105Z,20.70
2018-07-27T00:28:50.484Z,20.70
2018-07-27T00:31:19.332Z,20.60
2018-07-27T00:33:49.337Z,20.60
2018-07-27T00:36:18.161Z,20.50
2018-07-27T00:38:47.035Z,20.50
2018-07-27T00:41:16.436Z,20.40
2018-07-27T00:43:45.408Z,20.40
2018-07-27T00:46:14.223Z,20.40
2018-07-27T00:48:43.115Z,20.30
2018-07-27T00:53:40.467Z,20.30
2018-07-27T00:56:09.335Z,20.20
2018-07-27T00:58:38.224Z,20.20
2018-07-27T01:01:07.026Z,20.10
2018-07-27T01:03:35.873Z,20.00
2018-07-27T01:06:04.886Z,20.00
2018-07-27T01:08:33.824Z,19.90
2018-07-27T01:11:02.641Z,19.90
2018-07-27T01:13:32.015Z,19.90
2018-07-27T01:16:00.976Z,19.80
2018-07-27T01:18:29.814Z,19.80
2018-07-27T01:20:58.900Z,19.80
2018-07-27T01:23:27.820Z,19.70
2018-07-27T01:25:56.715Z,19.70
2018-07-27T01:28:25.659Z,19.70
2018-07-27T01:30:54.535Z,19.70
2018-07-27T01:33:23.348Z,19.70
2018-07-27T01:35:52.324Z,19.60
2018-07-27T01:38:21.275Z,19.60
2018-07-27T01:40:50.284Z,19.60
2018-07-27T01:43:19.088Z,19.60
2018-07-27T01:45:47.992Z,19.60
2018-07-27T01:51:21.340Z,19.70
2018-07-27T01:53:50.179Z,19.70
2018-07-27T01:56:19.024Z,19.80
2018-07-27T01:58:47.848Z,19.80
2018-07-27T02:01:16.733Z,19.80
2018-07-27T02:03:45.578Z,19.80
2018-07-27T02:06:14.427Z,19.70
2018-07-27T02:08:43.302Z,19.70
2018-07-27T02:11:12.179Z,19.70
2018-07-27T02:13:41.052Z,19.70
2018-07-27T02:16:09.873Z,19.60
2018-07-27T02:18:38.648Z,19.60
2018-07-27T02:21:07.812Z,19.70
2018-07-27T02:23:36.662Z,19.70
2018-07-27T02:26:05.424Z,19.60
2018-07-27T02:28:34.231Z,19.60
2018-07-27T02:31:03.116Z,19.60
2018-07-27T02:33:31.981Z,19.50
2018-07-27T02:36:00.768Z,19.50
2018-07-27T02:38:29.575Z,19.30
2018-07-27T02:40:58.379Z,19.20
2018-07-27T02:43:27.208Z,19.30
2018-07-27T02:45:56.040Z,19.20
2018-07-27T02:48:24.944Z,19.30
2018-07-27T02:50:53.740Z,19.30
2018-07-27T02:53:22.534Z,19.20
2018-07-27T02:55:51.325Z,19.10
2018-07-27T02:58:20.661Z,19.10
2018-07-27T03:00:50.047Z,19.10
2018-07-27T03:03:18.938Z,19.00
2018-07-27T03:05:47.779Z,19.00
2018-07-27T03:08:16.723Z,19.00
2018-07-27T03:10:45.524Z,18.90
2018-07-27T03:13:14.432Z,18.90
2018-07-27T03:15:43.236Z,18.90
2018-07-27T03:18:12.277Z,18.90
2018-07-27T03:20:41.129Z,18.90
2018-07-27T03:23:09.946Z,18.90
2018-07-27T03:25:38.755Z,18.80
2018-07-27T03:28:07.551Z,18.70
2018-07-27T03:30:36.324Z,18.60
2018-07-27T03:33:05.138Z,18.60
2018-07-27T03:35:33.909Z,18.60
2018-07-27T03:38:02.709Z,18.60
2018-07-27T03:40:31.506Z,18.50
2018-07-27T03:43:00.268Z,18.40
2018-07-27T03:45:29.096Z,18.40
2018-07-27T03:47:57.890Z,18.40
2018-07-27T03:50:26.676Z,18.40
2018-07-27T03:52:55.486Z,18.40
2018-07-27T03:55:24.263Z,18.40
2018-07-27T03:57:53.058Z,18.50
2018-07-27T04:00:21.821Z,18.50
2018-07-27T04:02:50.618Z,18.50
2018-07-27T04:05:19.502Z,18.60
2018-07-27T04:07:48.300Z,18.60
2018-07-27T04:10:17.114Z,18.60
2018-07-27T04:12:45.927Z,18.60
2018-07-27T04:15:14.696Z,18.60
2018-07-27T04:17:59.852Z,18.50
2018-07-27T04:20:28.939Z,18.40
2018-07-27T04:22:57.739Z,18.40
2018-07-27T04:25:26.571Z,18.40
2018-07-27T04:27:54.850Z,18.40
2018-07-27T04:30:23.815Z,18.50
2018-07-27T04:32:52.608Z,18.50
2018-07-27T04:35:21.452Z,18.60
2018-07-27T04:37:50.331Z,18.60
2018-07-27T04:40:19.177Z,18.50
2018-07-27T04:42:47.994Z,18.50
2018-07-27T04:45:16.736Z,18.50
2018-07-27T04:47:45.527Z,18.50
2018-07-27T04:50:14.330Z,18.50
2018-07-27T04:52:43.241Z,18.60
2018-07-27T04:55:12.155Z,18.50
2018-07-27T04:57:40.943Z,18.60
2018-07-27T05:00:09.756Z,18.60
2018-07-27T05:02:38.527Z,18.70
2018-07-27T05:05:07.355Z,18.70
2018-07-27T05:07:36.159Z,18.80
2018-07-27T05:10:10.484Z,18.80
2018-07-27T05:12:39.273Z,18.90
2018-07-27T05:15:08.215Z,18.90
2018-07-27T05:17:37.019Z,19.00
2018-07-27T05:20:05.951Z,19.00
2018-07-27T05:22:34.806Z,19.00
2018-07-27T05:25:03.584Z,19.10
2018-07-27T05:27:32.519Z,19.20
2018-07-27T05:30:01.307Z,19.30
2018-07-27T05:32:30.120Z,19.40
2018-07-27T05:34:58.906Z,19.40
2018-07-27T05:37:27.703Z,19.50
2018-07-27T05:39:56.563Z,19.50
2018-07-27T05:42:25.372Z,19.60
2018-07-27T05:44:54.152Z,19.60
2018-07-27T05:47:22.951Z,19.70
2018-07-27T05:49:51.743Z,19.70
2018-07-27T05:52:20.523Z,19.80
2018-07-27T05:54:49.347Z,19.80
2018-07-27T05:57:18.135Z,19.90
2018-07-27T05:59:46.961Z,20.00
2018-07-27T06:02:15.758Z,20.10
2018-07-27T06:04:44.601Z,20.20
2018-07-27T06:07:13.781Z,20.20
2018-07-27T06:09:42.567Z,20.30
2018-07-27T06:12:11.667Z,20.40
2018-07-27T06:14:40.459Z,20.40
2018-07-27T06:17:09.364Z,20.50
2018-07-27T06:19:38.150Z,20.60
2018-07-27T06:24:45.879Z,20.80
2018-07-27T06:27:14.690Z,20.80
2018-07-27T06:29:43.523Z,20.90
2018-07-27T06:32:12.732Z,21.00
2018-07-27T06:34:42.036Z,21.10
2018-07-27T06:37:11.227Z,21.20
2018-07-27T06:39:43.613Z,21.20
2018-07-27T06:42:12.485Z,21.40
2018-07-27T06:44:41.320Z,21.50
2018-07-27T06:47:10.115Z,21.60
2018-07-27T06:49:40.010Z,21.60
2018-07-27T06:52:08.804Z,21.70
2018-07-27T06:54:37.587Z,21.80
2018-07-27T06:57:06.363Z,21.90
2018-07-27T06:59:35.140Z,22.00
2018-07-27T07:02:03.896Z,22.20
2018-07-27T07:04:32.791Z,22.20
2018-07-27T07:07:01.573Z,22.30
2018-07-27T07:09:30.364Z,22.40
2018-07-27T07:11:59.145Z,22.50
2018-07-27T07:14:27.931Z,22.60
2018-07-27T07:16:56.716Z,22.60
2018-07-27T07:19:25.504Z,22.70
2018-07-27T07:21:54.314Z,22.80
2018-07-27T07:24:23.070Z,22.90
2018-07-27T07:26:51.852Z,23.00
2018-07-27T07:29:20.639Z,23.00
2018-07-27T07:31:49.404Z,23.10
2018-07-27T07:34:18.180Z,23.20
2018-07-27T07:36:46.940Z,23.30
2018-07-27T07:39:15.781Z,23.40
2018-07-27T07:41:44.797Z,23.40
2018-07-27T07:44:13.544Z,23.50
2018-07-27T07:46:42.304Z,23.60
2018-07-27T07:49:11.095Z,23.60
2018-07-27T07:51:39.854Z,23.70
2018-07-27T07:54:08.619Z,23.70
2018-07-27T07:56:37.391Z,23.80
2018-07-27T07:59:06.170Z,23.80
2018-07-27T08:01:34.947Z,23.90
2018-07-27T08:04:03.720Z,24.00
2018-07-27T08:06:32.523Z,24.10
2018-07-27T08:09:01.261Z,24.10
2018-07-27T08:11:30.091Z,24.20
2018-07-27T08:13:58.859Z,24.30
2018-07-27T08:16:27.662Z,24.40
2018-07-27T08:18:56.463Z,24.50
2018-07-27T08:21:26.852Z,24.60
2018-07-27T08:23:56.190Z,24.90
2018-07-27T08:29:18.435Z,25.10
2018-07-27T08:31:48.372Z,25.10
2018-07-27T08:34:17.853Z,25.20
2018-07-27T08:36:46.956Z,25.30
2018-07-27T08:39:20.275Z,25.50
2018-07-27T08:41:49.435Z,25.50
2018-07-27T08:44:19.603Z,25.70
2018-07-27T08:46:48.418Z,25.80
2018-07-27T08:49:17.257Z,25.90
2018-07-27T08:51:46.027Z,25.90
2018-07-27T08:54:14.841Z,26.00
2018-07-27T08:56:43.655Z,26.10
2018-07-27T08:59:12.441Z,26.20
2018-07-27T09:01:41.308Z,26.30
2018-07-27T09:04:10.129Z,26.40
2018-07-27T09:06:38.924Z,26.50
2018-07-27T09:09:09.262Z,26.50
2018-07-27T09:11:38.045Z,26.70
2018-07-27T09:14:06.814Z,26.70
2018-07-27T09:16:35.617Z,26.80
2018-07-27T09:19:04.424Z,26.90
2018-07-27T09:21:33.435Z,27.00
2018-07-27T09:24:02.235Z,27.00
2018-07-27T09:26:31.023Z,27.20
2018-07-27T09:28:59.838Z,27.30
2018-07-27T09:31:28.708Z,27.40
2018-07-27T09:33:57.492Z,27.70
2018-07-27T09:36:26.294Z,27.90
2018-07-27T09:38:55.219Z,28.10
2018-07-27T09:41:24.015Z,28.20
2018-07-27T09:43:52.798Z,28.50
2018-07-27T09:46:21.587Z,28.70
2018-07-27T09:48:53.372Z,28.80
2018-07-27T09:51:23.403Z,28.80
2018-07-27T09:53:52.276Z,29.10
2018-07-27T09:56:21.011Z,29.40
2018-07-27T09:58:49.792Z,29.50
2018-07-27T10:01:26.022Z,29.90
2018-07-27T10:06:23.800Z,30.00
2018-07-27T10:08:52.734Z,30.00
2018-07-27T10:11:21.782Z,30.20
2018-07-27T10:13:50.538Z,30.30
2018-07-27T10:16:19.327Z,30.40
2018-07-27T10:18:48.121Z,30.70
2018-07-27T10:21:16.903Z,30.80
2018-07-27T10:23:45.672Z,31.00
2018-07-27T10:26:14.436Z,31.20
2018-07-27T10:28:43.213Z,31.20
2018-07-27T10:31:12.034Z,31.40
2018-07-27T10:33:40.821Z,31.40
2018-07-27T10:36:09.834Z,31.70
2018-07-27T10:38:38.761Z,31.90
2018-07-27T10:41:07.470Z,32.00
2018-07-27T10:43:36.252Z,31.90
2018-07-27T10:46:06.006Z,31.80
2018-07-27T10:48:34.784Z,31.90
2018-07-27T10:51:03.827Z,32.10
2018-07-27T10:53:32.623Z,32.00
2018-07-27T10:56:01.408Z,31.60
2018-07-27T10:58:30.198Z,31.60
2018-07-27T11:03:27.723Z,31.60
2018-07-27T11:05:56.512Z,31.80
2018-07-27T11:08:25.307Z,32.00
2018-07-27T11:10:55.173Z,31.90
2018-07-27T11:13:23.943Z,31.80
2018-07-27T11:15:52.756Z,31.90
2018-07-27T11:18:21.584Z,31.70
2018-07-27T11:20:50.383Z,32.00
2018-07-27T11:23:19.169Z,32.20
2018-07-27T11:25:47.954Z,32.10
2018-07-27T11:28:16.745Z,32.20
2018-07-27T11:30:45.515Z,32.00
2018-07-27T11:33:14.309Z,31.50
2018-07-27T11:35:43.088Z,31.20
2018-07-27T11:38:11.863Z,30.80
2018-07-27T11:40:40.675Z,30.40
2018-07-27T11:43:09.544Z,30.20
2018-07-27T11:45:38.323Z,30.00
2018-07-27T11:48:07.298Z,29.90
2018-07-27T11:50:36.088Z,30.00
2018-07-27T11:53:04.927Z,29.80
2018-07-27T11:55:33.760Z,29.70
2018-07-27T11:58:02.552Z,29.70
2018-07-27T12:00:31.352Z,29.70
2018-07-27T12:03:00.156Z,29.70
2018-07-27T12:05:28.954Z,29.60
2018-07-27T12:07:57.784Z,29.50
2018-07-27T12:10:26.572Z,29.50
2018-07-27T12:12:55.624Z,29.40
2018-07-27T12:15:24.418Z,29.40
2018-07-27T12:17:53.216Z,29.50
2018-07-27T12:20:22.072Z,29.80
2018-07-27T12:22:50.808Z,30.30
2018-07-27T12:25:20.656Z,30.80
2018-07-27T12:27:49.428Z,31.30
2018-07-27T12:30:18.209Z,31.70
2018-07-27T12:32:47.035Z,31.80
2018-07-27T12:35:15.764Z,32.20
2018-07-27T12:37:44.568Z,32.40
2018-07-27T12:40:13.487Z,32.60
2018-07-27T12:42:42.304Z,32.90
2018-07-27T12:45:11.033Z,33.20
2018-07-27T12:47:39.850Z,33.30
2018-07-27T12:50:08.641Z,33.50
2018-07-27T12:52:37.421Z,33.70
2018-07-27T12:55:06.743Z,33.90
2018-07-27T12:57:35.562Z,34.00
2018-07-27T13:00:05.248Z,33.90
2018-07-27T13:02:34.020Z,34.00
2018-07-27T13:05:02.837Z,34.00
2018-07-27T13:07:31.596Z,34.30
2018-07-27T13:10:07.014Z,34.50
2018-07-27T13:12:37.238Z,34.40
2018-07-27T13:15:06.945Z,34.60
2018-07-27T13:17:35.901Z,34.80
2018-07-27T13:20:05.315Z,34.60
2018-07-27T13:22:34.242Z,34.50
2018-07-27T13:25:02.997Z,34.80
2018-07-27T13:27:31.741Z,35.00
2018-07-27T13:30:00.527Z,34.90
2018-07-27T13:32:29.486Z,34.80
2018-07-27T13:34:59.284Z,34.50
2018-07-27T13:37:33.420Z,34.30
2018-07-27T13:40:03.338Z,34.40
2018-07-27T13:42:33.456Z,34.60
2018-07-27T13:45:02.398Z,34.60
2018-07-27T13:47:31.183Z,34.70
2018-07-27T13:50:00.068Z,34.30
2018-07-27T13:52:28.875Z,34.30
2018-07-27T13:54:57.639Z,34.40
2018-07-27T13:57:26.410Z,34.80
2018-07-27T13:59:55.316Z,34.90
2018-07-27T14:02:24.075Z,35.30
2018-07-27T14:04:52.835Z,35.00
2018-07-27T14:07:21.624Z,34.20
2018-07-27T14:09:50.800Z,33.80
2018-07-27T14:12:19.571Z,33.80
2018-07-27T14:14:48.323Z,34.10
2018-07-27T14:17:17.094Z,34.40
2018-07-27T14:19:45.871Z,34.20
2018-07-27T14:22:14.635Z,34.20
2018-07-27T14:24:43.407Z,34.40
2018-07-27T14:27:12.235Z,34.40
2018-07-27T14:29:41.010Z,34.80
2018-07-27T14:32:09.788Z,35.10
2018-07-27T14:34:38.546Z,35.30
2018-07-27T14:37:07.439Z,35.50
2018-07-27T14:39:36.308Z,35.10
2018-07-27T14:42:05.188Z,34.90
2018-07-27T14:44:33.987Z,34.90
2018-07-27T14:47:09.429Z,35.00
2018-07-27T14:49:38.216Z,34.60
2018-07-27T14:52:07.078Z,34.60
2018-07-27T14:54:36.311Z,34.80
2018-07-27T14:57:05.199Z,34.80
2018-07-27T14:59:34.003Z,34.40
2018-07-27T15:02:02.795Z,34.40
2018-07-27T15:04:31.660Z,34.40
2018-07-27T15:07:00.411Z,34.40
2018-07-27T15:09:29.203Z,34.30
2018-07-27T15:11:57.972Z,34.50
2018-07-27T15:14:26.763Z,34.40
2018-07-27T15:16:55.532Z,34.80
2018-07-27T15:19:24.333Z,35.00
2018-07-27T15:21:53.491Z,35.20
2018-07-27T15:24:22.358Z,35.30
2018-07-27T15:26:51.119Z,35.20
2018-07-27T15:29:19.917Z,35.30
2018-07-27T15:31:48.717Z,35.20
2018-07-27T15:34:17.508Z,35.20
2018-07-27T15:36:46.283Z,35.10
2018-07-27T15:39:15.060Z,34.60
2018-07-27T15:41:43.832Z,34.20
2018-07-27T15:44:12.607Z,33.90
2018-07-27T15:46:41.374Z,33.80
2018-07-27T15:49:12.688Z,33.50
2018-07-27T15:51:42.109Z,33.20
2018-07-27T15:54:10.885Z,33.00
2018-07-27T15:56:39.655Z,33.00
2018-07-27T15:59:08.455Z,32.90
2018-07-27T16:01:37.275Z,32.80
2018-07-27T16:04:06.059Z,32.50
2018-07-27T16:06:34.836Z,32.30
2018-07-27T16:09:04.551Z,32.30
2018-07-27T16:11:33.323Z,32.60
2018-07-27T16:14:02.144Z,32.40
2018-07-27T16:16:30.896Z,32.50
2018-07-27T16:21:28.225Z,32.50
2018-07-27T16:23:56.996Z,32.50
2018-07-27T16:26:25.835Z,32.30
2018-07-27T16:28:54.606Z,32.20
2018-07-27T16:31:23.408Z,31.80
2018-07-27T16:33:52.180Z,31.50
2018-07-27T16:36:20.947Z,31.30
2018-07-27T16:38:49.742Z,31.20
2018-07-27T16:41:18.524Z,31.10
2018-07-27T16:43:47.291Z,30.90
2018-07-27T16:46:16.171Z,30.80
2018-07-27T16:48:44.960Z,30.80
2018-07-27T16:51:13.775Z,30.70
2018-07-27T16:53:42.551Z,30.60
2018-07-27T16:56:11.767Z,30.60
2018-07-27T16:58:40.523Z,30.60
2018-07-27T17:01:09.393Z,30.50
2018-07-27T17:03:38.172Z,30.40
2018-07-27T17:06:06.973Z,30.20
2018-07-27T17:08:35.723Z,30.10
2018-07-27T17:11:04.515Z,30.30
2018-07-27T17:13:33.365Z,30.30
2018-07-27T17:16:02.186Z,30.40
2018-07-27T17:18:31.087Z,30.50
2018-07-27T17:20:59.927Z,30.50
2018-07-27T17:23:28.696Z,30.70
2018-07-27T17:25:57.497Z,30.70
2018-07-27T17:28:26.314Z,30.80
2018-07-27T17:30:55.065Z,30.70
2018-07-27T17:33:23.831Z,30.70
2018-07-27T17:38:21.079Z,30.70
2018-07-27T17:41:09.227Z,30.50
2018-07-27T17:43:38.036Z,30.40
2018-07-27T17:46:07.340Z,30.30
2018-07-27T17:48:36.182Z,30.20
2018-07-27T17:51:05.472Z,30.10
2018-07-27T17:53:34.374Z,30.00
2018-07-27T17:56:03.184Z,29.90
2018-07-27T17:58:32.266Z,29.90
2018-07-27T18:01:01.877Z,29.80
2018-07-27T18:03:30.678Z,29.80
2018-07-27T18:05:59.505Z,29.60
2018-07-27T18:08:28.375Z,29.60
2018-07-27T18:10:57.163Z,29.40
2018-07-27T18:13:25.987Z,29.40
2018-07-27T18:15:54.831Z,29.20
2018-07-27T18:18:23.597Z,29.00
2018-07-27T18:20:52.372Z,28.80
2018-07-27T18:23:21.151Z,28.70
2018-07-27T18:25:50.062Z,28.70
2018-07-27T18:28:18.828Z,28.70
2018-07-27T18:30:47.616Z,28.60
2018-07-27T18:33:16.410Z,28.60
2018-07-27T18:35:45.149Z,28.50
2018-07-27T18:38:13.936Z,28.30
2018-07-27T18:40:42.714Z,28.20
2018-07-27T18:45:39.947Z,28.00
2018-07-27T18:48:08.758Z,27.90
2018-07-27T18:50:37.547Z,27.90
2018-07-27T18:53:06.348Z,27.80
2018-07-27T18:55:35.143Z,27.70
2018-07-27T18:58:04.007Z,27.60
2018-07-27T19:00:32.803Z,27.50
2018-07-27T19:03:01.601Z,27.40
2018-07-27T19:05:30.451Z,27.30
2018-07-27T19:07:59.259Z,27.20
2018-07-27T19:10:28.132Z,27.10
2018-07-27T19:12:56.919Z,27.00
2018-07-27T19:15:25.856Z,26.90
2018-07-27T19:17:54.668Z,26.90
2018-07-27T19:20:23.455Z,26.60
2018-07-27T19:22:52.251Z,26.50
2018-07-27T19:25:21.039Z,26.20
2018-07-27T19:27:49.824Z,26.00
2018-07-27T19:30:18.608Z,26.00
2018-07-27T19:32:47.412Z,25.90
2018-07-27T19:35:16.186Z,25.80
2018-07-27T19:37:44.984Z,25.70
2018-07-27T19:40:13.764Z,25.70
2018-07-27T19:42:42.561Z,25.50
2018-07-27T19:45:11.347Z,25.50
2018-07-27T19:47:40.205Z,25.40
2018-07-27T19:50:10.111Z,25.30
2018-07-27T19:52:38.949Z,25.20
2018-07-27T19:55:07.861Z,25.30
2018-07-27T19:57:36.874Z,25.20
2018-07-27T20:00:06.565Z,25.20
2018-07-27T20:02:35.451Z,25.20
2018-07-27T20:05:04.314Z,25.20
2018-07-27T20:07:33.112Z,25.40
2018-07-27T20:10:02.010Z,25.70
2018-07-27T20:12:30.895Z,25.80
2018-07-27T20:14:59.699Z,26.00
2018-07-27T20:17:28.503Z,26.20
2018-07-27T20:19:57.299Z,26.30
2018-07-27T20:22:26.098Z,26.40
2018-07-27T20:24:54.928Z,26.50
2018-07-27T20:27:23.731Z,26.50
2018-07-27T20:29:52.874Z,26.60
2018-07-27T20:32:21.646Z,26.50
2018-07-27T20:34:50.447Z,26.50
2018-07-27T20:37:19.288Z,26.40
2018-07-27T20:39:48.080Z,26.40
2018-07-27T20:42:16.895Z,26.40
2018-07-27T20:44:45.688Z,26.40
2018-07-27T20:47:14.476Z,26.30
2018-07-27T20:49:43.259Z,26.30
2018-07-27T20:52:12.060Z,26.40
2018-07-27T20:54:40.835Z,26.40
2018-07-27T20:57:09.702Z,26.40
2018-07-27T20:59:38.454Z,26.40
2018-07-27T21:02:07.247Z,26.30
2018-07-27T21:04:36.123Z,26.40
2018-07-27T21:07:04.931Z,26.40
2018-07-27T21:09:33.728Z,26.40
2018-07-27T21:12:02.516Z,26.40
2018-07-27T21:14:31.298Z,26.40
2018-07-27T21:17:00.085Z,26.50
2018-07-27T21:19:28.974Z,26.50
2018-07-27T21:21:57.838Z,26.40
2018-07-27T21:24:26.652Z,26.40
2018-07-27T21:26:55.459Z,26.40
2018-07-27T21:29:24.251Z,26.40
2018-07-27T21:31:53.021Z,26.40
2018-07-27T21:34:23.043Z,26.50
2018-07-27T21:36:51.910Z,26.50
2018-07-27T21:39:20.741Z,26.40
2018-07-27T21:41:49.630Z,26.50
2018-07-27T21:44:18.435Z,26.50
2018-07-27T21:46:47.248Z,26.50
2018-07-27T21:49:16.040Z,26.50
2018-07-27T21:51:44.902Z,26.50
2018-07-27T21:54:13.663Z,26.50
2018-07-27T21:56:42.460Z,26.50
2018-07-27T21:59:11.272Z,26.60
2018-07-27T22:01:41.115Z,26.60
2018-07-27T22:04:09.913Z,26.50
2018-07-27T22:06:38.827Z,26.50
2018-07-27T22:09:09.179Z,26.50
2018-07-27T22:11:38.180Z,26.50
2018-07-27T22:14:06.992Z,26.50
2018-07-27T22:16:35.780Z,26.50
2018-07-27T22:19:04.624Z,26.50
2018-07-27T22:21:33.511Z,26.50
2018-07-27T22:24:02.445Z,26.50
2018-07-27T22:26:31.227Z,26.50
2018-07-27T22:29:00.061Z,26.50
2018-07-27T22:31:28.904Z,26.50
2018-07-27T22:33:57.708Z,26.40
2018-07-27T22:36:26.545Z,26.40
2018-07-27T22:38:55.475Z,26.40
2018-07-27T22:41:24.269Z,26.40
2018-07-27T22:43:53.156Z,26.40
2018-07-27T22:46:21.951Z,26.30
2018-07-27T22:48:50.719Z,26.30
2018-07-27T22:51:19.545Z,26.30
2018-07-27T22:53:48.346Z,26.30
2018-07-27T22:56:17.148Z,26.20
2018-07-27T22:58:45.944Z,26.10
2018-07-27T23:01:14.776Z,26.20
2018-07-27T23:03:43.643Z,26.10
2018-07-27T23:06:12.408Z,26.10
2018-07-27T23:08:41.257Z,26.10
2018-07-27T23:11:10.073Z,26.10
2018-07-27T23:13:38.859Z,26.00
2018-07-27T23:16:07.647Z,26.00
2018-07-27T23:18:36.443Z,26.00
2018-07-27T23:21:05.283Z,26.00
2018-07-27T23:23:34.098Z,26.00
2018-07-27T23:26:02.880Z,26.00
2018-07-27T23:28:31.704Z,26.00
2018-07-27T23:31:00.502Z,25.90
2018-07-27T23:33:29.295Z,25.90
2018-07-27T23:35:58.088Z,25.90
2018-07-27T23:38:26.938Z,25.70
2018-07-27T23:40:55.735Z,25.70
2018-07-27T23:43:24.551Z,25.60
2018-07-27T23:45:53.347Z,25.60
2018-07-27T23:48:22.151Z,25.60
2018-07-27T23:50:50.978Z,25.60
2018-07-27T23:53:19.814Z,25.40
2018-07-27T23:55:48.597Z,25.10
2018-07-27T23:58:17.396Z,25.00
